»·PEaware :: N159KR KSMX-KBFL

N159KR :: KSMX-KBFL

FLIGHT INFORMATION

Flight Status: Arrived
Operator: Privately registered:
United States
More flights under this callsign
Pilot: Jonathan R. (17818)
Aircraft: CESSNA 172 SKYHAWK
(C172)
More flights by this aircraft type
Origin: KSMX Santa Maria Pub/Capt Hancock
United States
Destination: KBFL Meadows
United States
More flights between these airports :: More routes between these airports
Route:
File this flight plan on PilotEdge
Remarks: CAT-5 Rating
Altitude:
(Current/Filed)
7,500ft
Speed:
(Current/Filed)
105kts
Departed: 07-Jan-18 06:23 PM
Arrived: 07-Jan-18 07:05 PM
Distance/Time
Traveled:
76nm/0:42
Distance/Time
To Go:
Arrived

Flight Plot

Page will automatically refresh every two minutes.


Map Options




Map Legend


Flown Route
Filed Route
Departure Airport
Arrival Airport
Navaid (VOR, NDB)
Fix

Horizontal Profiles

Position Reports

Time Latitude Longitude Heading Altitude Ground
Speed
07-Jan-18 18:11 34.901384 -120.450785 154 265ft 0kts
07-Jan-18 18:12 34.901384 -120.450785 154 265ft 0kts
07-Jan-18 18:13 34.901384 -120.450785 154 265ft 0kts
07-Jan-18 18:14 34.901384 -120.450785 154 265ft 0kts
07-Jan-18 18:15 34.901384 -120.450785 154 265ft 0kts
07-Jan-18 18:16 34.901384 -120.450785 154 265ft 0kts
07-Jan-18 18:17 34.901384 -120.450785 154 265ft 0kts
07-Jan-18 18:18 34.901384 -120.450785 154 265ft 0kts
07-Jan-18 18:19 34.901384 -120.450785 154 265ft 0kts
07-Jan-18 18:20 34.901384 -120.450785 154 265ft 0kts
07-Jan-18 18:21 34.901384 -120.450785 154 265ft 0kts
07-Jan-18 18:22 34.901384 -120.450785 154 265ft 0kts
07-Jan-18 18:23 34.900431 -120.450655 178 265ft 7kts
07-Jan-18 18:24 34.897793 -120.449267 136 265ft 15kts
07-Jan-18 18:25 34.894083 -120.444937 172 265ft 12kts
07-Jan-18 18:26 34.893205 -120.444957 180 265ft 0kts
07-Jan-18 18:27 34.893205 -120.444957 180 265ft 0kts
07-Jan-18 18:28 34.893205 -120.444957 180 265ft 0kts
07-Jan-18 18:29 34.900238 -120.454541 313 690ft 65kts
07-Jan-18 18:30 34.912550 -120.469903 313 1642ft 63kts
07-Jan-18 18:31 34.923577 -120.467256 83 2437ft 86kts
07-Jan-18 18:32 34.926771 -120.437463 79 3259ft 90kts
07-Jan-18 18:33 34.932671 -120.407691 76 4039ft 93kts
07-Jan-18 18:34 34.938512 -120.375972 73 4741ft 98kts
07-Jan-18 18:35 34.946634 -120.344391 72 5447ft 97kts
07-Jan-18 18:36 34.955313 -120.312677 62 6065ft 101kts
07-Jan-18 18:37 34.968111 -120.279464 59 6534ft 109kts
07-Jan-18 18:38 34.981013 -120.245704 52 7020ft 109kts
07-Jan-18 18:39 34.997420 -120.212780 63 7368ft 117kts
07-Jan-18 18:40 35.011653 -120.174355 63 7481ft 130kts
07-Jan-18 18:41 35.025787 -120.133482 64 7368ft 126kts
07-Jan-18 18:42 35.039203 -120.094446 75 7493ft 124kts
07-Jan-18 18:43 35.051412 -120.053698 67 7566ft 130kts
07-Jan-18 18:44 35.066060 -120.013356 63 7604ft 133kts
07-Jan-18 18:45 35.082250 -119.972116 63 7530ft 136kts
07-Jan-18 18:46 35.097500 -119.931341 64 7462ft 137kts
07-Jan-18 18:47 35.115514 -119.892109 54 7429ft 136kts
07-Jan-18 18:48 35.133623 -119.852854 69 7481ft 131kts
07-Jan-18 18:49 35.148013 -119.811678 68 7520ft 131kts
07-Jan-18 18:50 35.161122 -119.769798 70 7545ft 132kts
07-Jan-18 18:51 35.177714 -119.729525 63 7575ft 131kts
07-Jan-18 18:52 35.193731 -119.688702 64 7542ft 133kts
07-Jan-18 18:53 35.210031 -119.647717 65 7508ft 133kts
07-Jan-18 18:54 35.227075 -119.607469 67 7481ft 133kts
07-Jan-18 18:55 35.242010 -119.566360 65 7499ft 130kts
07-Jan-18 18:56 35.256800 -119.525312 66 7476ft 129kts
07-Jan-18 18:57 35.271718 -119.485606 63 7469ft 127kts
07-Jan-18 18:58 35.288915 -119.444112 66 6825ft 138kts
07-Jan-18 18:59 35.305068 -119.402197 65 6241ft 136kts
07-Jan-18 19:00 35.320716 -119.360405 66 5674ft 134kts
07-Jan-18 19:01 35.336128 -119.319724 68 5136ft 132kts
07-Jan-18 19:02 35.350054 -119.278372 69 4622ft 131kts
07-Jan-18 19:03 35.357434 -119.235254 85 4118ft 128kts
07-Jan-18 19:04 35.363414 -119.192179 82 3611ft 129kts
07-Jan-18 19:05 35.368030 -119.149292 83 3165ft 126kts
07-Jan-18 19:06 35.371910 -119.107020 85 2736ft 124kts
07-Jan-18 19:07 35.375145 -119.064646 86 2292ft 124kts
07-Jan-18 19:08 35.387182 -119.027794 47 2039ft 118kts
07-Jan-18 19:09 35.415384 -119.033583 306 980ft 108kts
07-Jan-18 19:10 35.430421 -119.052062 312 538ft 65kts
07-Jan-18 19:11 35.435947 -119.058150 16 490ft 3kts
07-Jan-18 19:12 35.436276 -119.057820 64 492ft 0kts
07-Jan-18 19:13 35.436276 -119.057820 64 492ft 0kts
07-Jan-18 19:14 35.435216 -119.055601 134 492ft 6kts
07-Jan-18 19:15 35.431433 -119.051084 138 493ft 27kts
07-Jan-18 19:16 35.429892 -119.047103 44 495ft 11kts

Navigation Log

Ident Type
1. KSMX Airport
2. KBFL Airport